SETU/TUA METAR and TAF weather

Enter ICAO airport designator
Station Type Date Time Source
SETU METAR 2019/02/20 21:00 UTC NOAA

SETU 202100Z 06006KT 9999 SCT020 SCT100 17/10 Q1028


Station Type Date Time Source
SETU Decoded METAR 2019/02/20 21:00 UTC NOAA

Tulcan / El Rosal, Ecuador (SETU) 00-49N 077-42W
Feb 20, 2019 - 04:00 PM EST / 2019.02.20 2100 UTC
Wind: from the ENE (060 degrees) at 7 MPH (6 KT):0
Visibility: greater than 7 mile(s):0
Sky conditions: partly cloudy
Temperature: 62 F (17 C)
Dew Point: 50 F (10 C)
Relative Humidity: 63%
Pressure (altimeter): 30.36 in. Hg (1028 hPa)
ob: SETU 202100Z 06006KT 9999 SCT020 SCT100 17/10 Q1028
cycle: 21

Station Type Date Time Source
SETU TAF UTC NOAA

Error!


Example: see airport list